AFR1750 EKCH-LFPG
Flight info
| Callsign | AFR1750 |
|---|---|
| Flight time | 1h 34m |
| Altitude | 40000 |
| Route | NEXEN T503 GIMRU DCT MICOS DCT NVO DCT IDOSA UN857 TOLVU/N0485F410 DCT RAPOR DCT VEDUS |
| Aircraft | A359/H-SDE2E3GHIJ3J4J5LM1ORWXY/LB1D1 |
Departure
| Time | 2026-05-08 15:27 |
|---|---|
| Airport | Copenhagen Kastrup Airport (EKCH) |
Arrival
| Time | 2026-05-08 17:01 |
|---|---|
| Airport | Charles de Gaulle International Airport (LFPG) |
| Time | Latitude | Longitude | Altitude | Speed | Heading |
|---|---|---|---|---|---|
| 2026-05-08 15:02 | 55.62508 | 12.65065 | 26 ft | 0 kts | 278° |
| 2026-05-08 15:14 | 55.62508 | 12.65076 | 26 ft | 2 kts | 275° |
| 2026-05-08 15:14 | 55.62506 | 12.65102 | 31 ft | 2 kts | 272° |
| 2026-05-08 15:14 | 55.62506 | 12.65124 | 27 ft | 2 kts | 266° |
| 2026-05-08 15:14 | 55.62509 | 12.65152 | 31 ft | 2 kts | 248° |
| 2026-05-08 15:15 | 55.62518 | 12.65176 | 31 ft | 2 kts | 204° |
| 2026-05-08 15:15 | 55.62530 | 12.65181 | 31 ft | 1 kts | 179° |
| 2026-05-08 15:15 | 55.62531 | 12.65181 | 31 ft | 0 kts | 178° |
| 2026-05-08 15:18 | 55.62527 | 12.65181 | 31 ft | 2 kts | 178° |
| 2026-05-08 15:18 | 55.62499 | 12.65183 | 31 ft | 6 kts | 177° |
| 2026-05-08 15:19 | 55.62441 | 12.65188 | 26 ft | 10 kts | 177° |
| 2026-05-08 15:19 | 55.62360 | 12.65194 | 27 ft | 12 kts | 177° |
| 2026-05-08 15:19 | 55.62293 | 12.65185 | 28 ft | 8 kts | 203° |
| 2026-05-08 15:19 | 55.62281 | 12.65103 | 28 ft | 8 kts | 277° |
| 2026-05-08 15:20 | 55.62307 | 12.64990 | 30 ft | 11 kts | 299° |
| 2026-05-08 15:20 | 55.62301 | 12.64890 | 31 ft | 6 kts | 227° |
| 2026-05-08 15:20 | 55.62254 | 12.64830 | 30 ft | 11 kts | 214° |
| 2026-05-08 15:20 | 55.62230 | 12.64801 | 29 ft | 0 kts | 214° |
| 2026-05-08 15:22 | 55.62223 | 12.64792 | 29 ft | 4 kts | 214° |
| 2026-05-08 15:22 | 55.62179 | 12.64739 | 29 ft | 10 kts | 214° |
| 2026-05-08 15:22 | 55.62106 | 12.64653 | 27 ft | 15 kts | 213° |
| 2026-05-08 15:23 | 55.62016 | 12.64548 | 30 ft | 9 kts | 213° |
| 2026-05-08 15:23 | 55.61967 | 12.64465 | 27 ft | 10 kts | 242° |
| 2026-05-08 15:23 | 55.61947 | 12.64324 | 26 ft | 14 kts | 258° |
| 2026-05-08 15:23 | 55.61918 | 12.64140 | 27 ft | 17 kts | 236° |
| 2026-05-08 15:24 | 55.61834 | 12.64075 | 27 ft | 0 kts | 182° |
| 2026-05-08 15:24 | 55.61810 | 12.64075 | 26 ft | 7 kts | 178° |
| 2026-05-08 15:24 | 55.61768 | 12.64079 | 27 ft | 0 kts | 175° |
| 2026-05-08 15:25 | 55.61753 | 12.64081 | 26 ft | 6 kts | 175° |
| 2026-05-08 15:25 | 55.61693 | 12.64088 | 31 ft | 11 kts | 179° |
| 2026-05-08 15:25 | 55.61611 | 12.64038 | 32 ft | 15 kts | 216° |
| 2026-05-08 15:25 | 55.61586 | 12.64004 | 30 ft | 0 kts | 219° |
| 2026-05-08 15:26 | 55.61563 | 12.63970 | 29 ft | 17 kts | 220° |
| 2026-05-08 15:26 | 55.61274 | 12.63527 | 31 ft | 94 kts | 221° |
| 2026-05-08 15:26 | 55.60603 | 12.62493 | 31 ft | 160 kts | 220° |
| 2026-05-08 15:27 | 55.59654 | 12.61087 | 331 ft | 193 kts | 219° |
| 2026-05-08 15:27 | 55.58598 | 12.59494 | 750 ft | 208 kts | 218° |
| 2026-05-08 15:27 | 55.57442 | 12.57688 | 1053 ft | 235 kts | 218° |
| 2026-05-08 15:27 | 55.56126 | 12.55839 | 1635 ft | 247 kts | 212° |
| 2026-05-08 15:28 | 55.54701 | 12.54060 | 2341 ft | 255 kts | 211° |
| 2026-05-08 15:28 | 55.53230 | 12.52259 | 3057 ft | 261 kts | 211° |
| 2026-05-08 15:28 | 55.51717 | 12.50410 | 3822 ft | 266 kts | 212° |
| 2026-05-08 15:28 | 55.50183 | 12.48532 | 4580 ft | 271 kts | 212° |
| 2026-05-08 15:29 | 55.48622 | 12.46622 | 5345 ft | 275 kts | 211° |
| 2026-05-08 15:29 | 55.47048 | 12.44697 | 6149 ft | 276 kts | 211° |
| 2026-05-08 15:29 | 55.45468 | 12.42766 | 6942 ft | 277 kts | 211° |
| 2026-05-08 15:29 | 55.43898 | 12.40848 | 7693 ft | 279 kts | 212° |
| 2026-05-08 15:30 | 55.42279 | 12.38874 | 8457 ft | 280 kts | 212° |
| 2026-05-08 15:30 | 55.40695 | 12.36944 | 9259 ft | 281 kts | 212° |
| 2026-05-08 15:30 | 55.39087 | 12.34986 | 10058 ft | 282 kts | 212° |
| 2026-05-08 15:30 | 55.37458 | 12.33003 | 10640 ft | 290 kts | 212° |
| 2026-05-08 15:31 | 55.35742 | 12.30926 | 10955 ft | 308 kts | 212° |
| 2026-05-08 15:31 | 55.34531 | 12.29459 | 11158 ft | 319 kts | 212° |
| 2026-05-08 15:31 | 55.32055 | 12.26457 | 11746 ft | 332 kts | 212° |
| 2026-05-08 15:31 | 55.30135 | 12.24131 | 12330 ft | 337 kts | 213° |
| 2026-05-08 15:32 | 55.28853 | 12.22583 | 12754 ft | 340 kts | 213° |
| 2026-05-08 15:32 | 55.26904 | 12.20226 | 13473 ft | 340 kts | 213° |
| 2026-05-08 15:32 | 55.24951 | 12.17868 | 14159 ft | 342 kts | 213° |
| 2026-05-08 15:32 | 55.22981 | 12.15492 | 14717 ft | 346 kts | 214° |
| 2026-05-08 15:33 | 55.20991 | 12.13095 | 15281 ft | 348 kts | 214° |
| 2026-05-08 15:33 | 55.19010 | 12.10618 | 15832 ft | 352 kts | 216° |
| 2026-05-08 15:33 | 55.17021 | 12.08075 | 16367 ft | 356 kts | 217° |
| 2026-05-08 15:33 | 55.15020 | 12.05508 | 16992 ft | 357 kts | 217° |
| 2026-05-08 15:34 | 55.13008 | 12.02931 | 17592 ft | 359 kts | 217° |
| 2026-05-08 15:34 | 55.10985 | 12.00343 | 18150 ft | 363 kts | 217° |
| 2026-05-08 15:34 | 55.08940 | 11.97731 | 18671 ft | 366 kts | 217° |
| 2026-05-08 15:34 | 55.06872 | 11.95098 | 19157 ft | 368 kts | 217° |
| 2026-05-08 15:35 | 55.04796 | 11.92459 | 19696 ft | 369 kts | 218° |
| 2026-05-08 15:35 | 55.02715 | 11.89812 | 20172 ft | 372 kts | 217° |
| 2026-05-08 15:35 | 55.00611 | 11.87144 | 20613 ft | 376 kts | 217° |
| 2026-05-08 15:35 | 54.98492 | 11.84459 | 21092 ft | 377 kts | 217° |
| 2026-05-08 15:36 | 54.96361 | 11.81766 | 21595 ft | 379 kts | 218° |
| 2026-05-08 15:36 | 54.94228 | 11.79069 | 22062 ft | 381 kts | 218° |
| 2026-05-08 15:36 | 54.92069 | 11.76339 | 22476 ft | 385 kts | 217° |
| 2026-05-08 15:36 | 54.89891 | 11.73595 | 22955 ft | 387 kts | 217° |
| 2026-05-08 15:37 | 54.87708 | 11.70850 | 23432 ft | 388 kts | 217° |
| 2026-05-08 15:37 | 54.85535 | 11.68120 | 23858 ft | 391 kts | 217° |
| 2026-05-08 15:37 | 54.83315 | 11.65334 | 24210 ft | 394 kts | 217° |
| 2026-05-08 15:37 | 54.81087 | 11.62541 | 24594 ft | 396 kts | 217° |
| 2026-05-08 15:38 | 54.78850 | 11.59740 | 25003 ft | 398 kts | 217° |
| 2026-05-08 15:38 | 54.76599 | 11.56925 | 25407 ft | 400 kts | 217° |
| 2026-05-08 15:38 | 54.74331 | 11.54092 | 25789 ft | 403 kts | 217° |
| 2026-05-08 15:38 | 54.72045 | 11.51243 | 26234 ft | 405 kts | 217° |
| 2026-05-08 15:39 | 54.69760 | 11.48401 | 26723 ft | 405 kts | 217° |
| 2026-05-08 15:39 | 54.67464 | 11.45548 | 27155 ft | 408 kts | 217° |
| 2026-05-08 15:39 | 54.65150 | 11.42677 | 27612 ft | 411 kts | 217° |
| 2026-05-08 15:39 | 54.62820 | 11.39791 | 28102 ft | 413 kts | 217° |
| 2026-05-08 15:40 | 54.60477 | 11.36893 | 28566 ft | 416 kts | 217° |
| 2026-05-08 15:40 | 54.58115 | 11.33973 | 29009 ft | 420 kts | 217° |
| 2026-05-08 15:40 | 54.55730 | 11.31032 | 29478 ft | 423 kts | 217° |
| 2026-05-08 15:40 | 54.53361 | 11.28129 | 29970 ft | 425 kts | 217° |
| 2026-05-08 15:41 | 54.50936 | 11.25173 | 30402 ft | 428 kts | 217° |
| 2026-05-08 15:41 | 54.48496 | 11.22208 | 30779 ft | 431 kts | 217° |
| 2026-05-08 15:41 | 54.46041 | 11.19232 | 31196 ft | 433 kts | 217° |
| 2026-05-08 15:41 | 54.43574 | 11.16242 | 31581 ft | 435 kts | 217° |
| 2026-05-08 15:42 | 54.41088 | 11.13233 | 31973 ft | 438 kts | 217° |
| 2026-05-08 15:42 | 54.38595 | 11.10219 | 32343 ft | 441 kts | 218° |
| 2026-05-08 15:42 | 54.36079 | 11.07180 | 32710 ft | 443 kts | 218° |
| 2026-05-08 15:42 | 54.33545 | 11.04125 | 33073 ft | 446 kts | 218° |
| 2026-05-08 15:43 | 54.31003 | 11.01057 | 33420 ft | 448 kts | 218° |
| 2026-05-08 15:43 | 54.28504 | 10.97849 | 33773 ft | 450 kts | 220° |
| 2026-05-08 15:43 | 54.26050 | 10.94502 | 34111 ft | 452 kts | 221° |
| 2026-05-08 15:43 | 54.23612 | 10.91085 | 34420 ft | 453 kts | 222° |
| 2026-05-08 15:44 | 54.21179 | 10.87650 | 34698 ft | 456 kts | 222° |
| 2026-05-08 15:44 | 54.18755 | 10.84237 | 34989 ft | 457 kts | 221° |
| 2026-05-08 15:44 | 54.16296 | 10.80802 | 35316 ft | 457 kts | 221° |
| 2026-05-08 15:44 | 54.13824 | 10.77372 | 35656 ft | 458 kts | 221° |
| 2026-05-08 15:45 | 54.11345 | 10.73951 | 35964 ft | 459 kts | 221° |
| 2026-05-08 15:45 | 54.08854 | 10.70527 | 36277 ft | 460 kts | 221° |
| 2026-05-08 15:45 | 54.06361 | 10.67111 | 36580 ft | 461 kts | 220° |
| 2026-05-08 15:45 | 54.03865 | 10.63695 | 36883 ft | 462 kts | 220° |
| 2026-05-08 15:46 | 54.01356 | 10.60268 | 37166 ft | 462 kts | 220° |
| 2026-05-08 15:46 | 53.98850 | 10.56850 | 37484 ft | 463 kts | 220° |
| 2026-05-08 15:46 | 53.96329 | 10.53415 | 37783 ft | 464 kts | 220° |
| 2026-05-08 15:46 | 53.93808 | 10.49986 | 38072 ft | 465 kts | 220° |
| 2026-05-08 15:47 | 53.91283 | 10.46556 | 38364 ft | 465 kts | 220° |
| 2026-05-08 15:47 | 53.88754 | 10.43127 | 38654 ft | 466 kts | 220° |
| 2026-05-08 15:47 | 53.86220 | 10.39695 | 38919 ft | 466 kts | 220° |
| 2026-05-08 15:47 | 53.83681 | 10.36263 | 39114 ft | 467 kts | 220° |
| 2026-05-08 15:48 | 53.78600 | 10.29410 | 39545 ft | 467 kts | 220° |
| 2026-05-08 15:48 | 53.76061 | 10.25995 | 39757 ft | 466 kts | 220° |
| 2026-05-08 15:48 | 53.73522 | 10.22585 | 39971 ft | 466 kts | 220° |
| 2026-05-08 15:49 | 53.70979 | 10.19174 | 40125 ft | 467 kts | 220° |
| 2026-05-08 15:49 | 53.65901 | 10.12380 | 40154 ft | 464 kts | 220° |
| 2026-05-08 15:50 | 53.60842 | 10.05634 | 40157 ft | 464 kts | 220° |
| 2026-05-08 15:50 | 53.55772 | 9.98892 | 40151 ft | 464 kts | 220° |
| 2026-05-08 15:51 | 53.50734 | 9.92215 | 40155 ft | 464 kts | 220° |
| 2026-05-08 15:51 | 53.45659 | 9.85510 | 40156 ft | 464 kts | 220° |
| 2026-05-08 15:52 | 53.40583 | 9.78824 | 40168 ft | 464 kts | 220° |
| 2026-05-08 15:52 | 53.35501 | 9.72151 | 40167 ft | 464 kts | 219° |
| 2026-05-08 15:53 | 53.30415 | 9.65494 | 40167 ft | 464 kts | 219° |
| 2026-05-08 15:53 | 53.25328 | 9.58856 | 40165 ft | 464 kts | 219° |
| 2026-05-08 15:54 | 53.20237 | 9.52233 | 40163 ft | 464 kts | 219° |
| 2026-05-08 15:54 | 53.15178 | 9.45672 | 40162 ft | 464 kts | 219° |
| 2026-05-08 15:55 | 53.10081 | 9.39084 | 40159 ft | 464 kts | 219° |
| 2026-05-08 15:55 | 53.02427 | 9.29226 | 40156 ft | 464 kts | 219° |
| 2026-05-08 15:56 | 52.97317 | 9.22670 | 40157 ft | 464 kts | 219° |
| 2026-05-08 15:56 | 52.92202 | 9.16128 | 40156 ft | 464 kts | 219° |
| 2026-05-08 15:57 | 52.87088 | 9.09607 | 40154 ft | 464 kts | 219° |
| 2026-05-08 15:57 | 52.81977 | 9.03110 | 40153 ft | 464 kts | 219° |
| 2026-05-08 15:58 | 52.76854 | 8.96618 | 40151 ft | 464 kts | 219° |
| 2026-05-08 15:58 | 52.71732 | 8.90147 | 40165 ft | 464 kts | 219° |
| 2026-05-08 15:59 | 52.66597 | 8.83678 | 40156 ft | 464 kts | 219° |
| 2026-05-08 15:59 | 52.61471 | 8.77241 | 40155 ft | 463 kts | 219° |
| 2026-05-08 16:00 | 52.56342 | 8.70820 | 40157 ft | 463 kts | 219° |
| 2026-05-08 16:00 | 52.51218 | 8.64423 | 40161 ft | 463 kts | 219° |
| 2026-05-08 16:01 | 52.46119 | 8.58077 | 40157 ft | 463 kts | 219° |
| 2026-05-08 16:01 | 52.40985 | 8.51707 | 40157 ft | 463 kts | 219° |
| 2026-05-08 16:02 | 52.35843 | 8.45346 | 40158 ft | 463 kts | 219° |
| 2026-05-08 16:02 | 52.30695 | 8.38996 | 40156 ft | 463 kts | 219° |
| 2026-05-08 16:03 | 52.25537 | 8.32653 | 40158 ft | 463 kts | 219° |
| 2026-05-08 16:03 | 52.20373 | 8.26322 | 40153 ft | 463 kts | 219° |
| 2026-05-08 16:04 | 52.15236 | 8.20043 | 40154 ft | 463 kts | 218° |
| 2026-05-08 16:04 | 52.10070 | 8.13746 | 40150 ft | 463 kts | 218° |
| 2026-05-08 16:05 | 52.04933 | 8.07504 | 40142 ft | 463 kts | 218° |
| 2026-05-08 16:05 | 51.99755 | 8.01229 | 40144 ft | 463 kts | 218° |
| 2026-05-08 16:06 | 51.94586 | 7.94985 | 40152 ft | 462 kts | 218° |
| 2026-05-08 16:06 | 51.89436 | 7.88781 | 40146 ft | 462 kts | 218° |
| 2026-05-08 16:07 | 51.84291 | 7.82603 | 40145 ft | 462 kts | 218° |
| 2026-05-08 16:07 | 51.79110 | 7.76398 | 40132 ft | 462 kts | 218° |
| 2026-05-08 16:08 | 51.73927 | 7.70209 | 40118 ft | 462 kts | 218° |
| 2026-05-08 16:08 | 51.68785 | 7.64088 | 40112 ft | 462 kts | 218° |
| 2026-05-08 16:09 | 51.64448 | 7.58939 | 40107 ft | 462 kts | 218° |
| 2026-05-08 16:09 | 51.58417 | 7.51798 | 40102 ft | 462 kts | 218° |
| 2026-05-08 16:10 | 51.53265 | 7.45718 | 40128 ft | 462 kts | 218° |
| 2026-05-08 16:10 | 51.48083 | 7.39618 | 40121 ft | 461 kts | 218° |
| 2026-05-08 16:11 | 51.42892 | 7.33527 | 40123 ft | 461 kts | 218° |
| 2026-05-08 16:11 | 51.37728 | 7.27485 | 40112 ft | 461 kts | 218° |
| 2026-05-08 16:12 | 51.32530 | 7.21422 | 40103 ft | 461 kts | 218° |
| 2026-05-08 16:12 | 51.27367 | 7.15415 | 40108 ft | 461 kts | 218° |
| 2026-05-08 16:13 | 51.22154 | 7.09366 | 40103 ft | 462 kts | 218° |
| 2026-05-08 16:13 | 51.16966 | 7.03364 | 40099 ft | 462 kts | 218° |
| 2026-05-08 16:14 | 51.11746 | 6.97344 | 40091 ft | 462 kts | 218° |
| 2026-05-08 16:14 | 51.06535 | 6.91350 | 40100 ft | 462 kts | 218° |
| 2026-05-08 16:15 | 51.01361 | 6.85416 | 40102 ft | 462 kts | 218° |
| 2026-05-08 16:15 | 50.96148 | 6.79453 | 40100 ft | 462 kts | 218° |
| 2026-05-08 16:16 | 50.90934 | 6.73507 | 40101 ft | 462 kts | 218° |
| 2026-05-08 16:16 | 50.85707 | 6.67561 | 40104 ft | 462 kts | 218° |
| 2026-05-08 16:17 | 50.81194 | 6.63024 | 40105 ft | 464 kts | 209° |
| 2026-05-08 16:17 | 50.74379 | 6.57832 | 40102 ft | 465 kts | 207° |
| 2026-05-08 16:18 | 50.68486 | 6.53607 | 40099 ft | 465 kts | 206° |
| 2026-05-08 16:18 | 50.62586 | 6.49395 | 40104 ft | 466 kts | 207° |
| 2026-05-08 16:19 | 50.57683 | 6.45881 | 40095 ft | 466 kts | 207° |
| 2026-05-08 16:19 | 50.51784 | 6.41647 | 40101 ft | 466 kts | 207° |
| 2026-05-08 16:20 | 50.45889 | 6.37424 | 40096 ft | 466 kts | 207° |
| 2026-05-08 16:20 | 50.39989 | 6.33210 | 40083 ft | 466 kts | 207° |
| 2026-05-08 16:21 | 50.34082 | 6.29002 | 40092 ft | 466 kts | 207° |
| 2026-05-08 16:21 | 50.28181 | 6.24812 | 40077 ft | 466 kts | 206° |
| 2026-05-08 16:22 | 50.22271 | 6.20626 | 40085 ft | 466 kts | 206° |
| 2026-05-08 16:22 | 50.16364 | 6.16454 | 40084 ft | 466 kts | 206° |
| 2026-05-08 16:23 | 50.10453 | 6.12291 | 40083 ft | 466 kts | 206° |
| 2026-05-08 16:23 | 50.04543 | 6.08139 | 40078 ft | 466 kts | 206° |
| 2026-05-08 16:24 | 49.98625 | 6.03993 | 40078 ft | 466 kts | 206° |
| 2026-05-08 16:24 | 49.92704 | 5.99856 | 40080 ft | 466 kts | 206° |
| 2026-05-08 16:25 | 49.86792 | 5.95736 | 40069 ft | 466 kts | 206° |
| 2026-05-08 16:25 | 49.80934 | 5.91575 | 40051 ft | 465 kts | 210° |
| 2026-05-08 16:26 | 49.78174 | 5.88965 | 39909 ft | 467 kts | 218° |
| 2026-05-08 16:26 | 49.75684 | 5.85703 | 39678 ft | 470 kts | 227° |
| 2026-05-08 16:26 | 49.73592 | 5.81829 | 39449 ft | 469 kts | 237° |
| 2026-05-08 16:26 | 49.71981 | 5.77463 | 39246 ft | 468 kts | 246° |
| 2026-05-08 16:27 | 49.70744 | 5.72820 | 39024 ft | 467 kts | 250° |
| 2026-05-08 16:27 | 49.69626 | 5.68113 | 38800 ft | 468 kts | 251° |
| 2026-05-08 16:27 | 49.68555 | 5.63374 | 38449 ft | 464 kts | 252° |
| 2026-05-08 16:27 | 49.67504 | 5.58675 | 37821 ft | 462 kts | 251° |
| 2026-05-08 16:28 | 49.66448 | 5.53993 | 37144 ft | 461 kts | 251° |
| 2026-05-08 16:28 | 49.65380 | 5.49326 | 36466 ft | 461 kts | 251° |
| 2026-05-08 16:28 | 49.64301 | 5.44677 | 35784 ft | 461 kts | 251° |
| 2026-05-08 16:28 | 49.63210 | 5.40025 | 35063 ft | 461 kts | 251° |
| 2026-05-08 16:29 | 49.62133 | 5.35371 | 34488 ft | 458 kts | 252° |
| 2026-05-08 16:29 | 49.61128 | 5.30807 | 34005 ft | 453 kts | 253° |
| 2026-05-08 16:29 | 49.60153 | 5.26219 | 33392 ft | 448 kts | 254° |
| 2026-05-08 16:29 | 49.59460 | 5.21574 | 32884 ft | 442 kts | 262° |
| 2026-05-08 16:30 | 49.59230 | 5.16824 | 32348 ft | 436 kts | 269° |
| 2026-05-08 16:30 | 49.59227 | 5.12180 | 31841 ft | 431 kts | 270° |
| 2026-05-08 16:30 | 49.59260 | 5.07647 | 31346 ft | 427 kts | 270° |
| 2026-05-08 16:30 | 49.59299 | 5.03080 | 30845 ft | 423 kts | 270° |
| 2026-05-08 16:31 | 49.59336 | 4.98566 | 30348 ft | 420 kts | 270° |
| 2026-05-08 16:31 | 49.59370 | 4.94097 | 29804 ft | 416 kts | 270° |
| 2026-05-08 16:31 | 49.59401 | 4.89640 | 29275 ft | 412 kts | 271° |
| 2026-05-08 16:31 | 49.59431 | 4.85259 | 28793 ft | 407 kts | 271° |
| 2026-05-08 16:32 | 49.59458 | 4.80925 | 28307 ft | 402 kts | 271° |
| 2026-05-08 16:32 | 49.59484 | 4.76606 | 28078 ft | 406 kts | 270° |
| 2026-05-08 16:32 | 49.59530 | 4.67871 | 28053 ft | 408 kts | 270° |
| 2026-05-08 16:33 | 49.59551 | 4.63511 | 27904 ft | 404 kts | 270° |
| 2026-05-08 16:33 | 49.59570 | 4.59188 | 27078 ft | 403 kts | 270° |
| 2026-05-08 16:33 | 49.59587 | 4.54852 | 25715 ft | 405 kts | 270° |
| 2026-05-08 16:33 | 49.59602 | 4.50576 | 25158 ft | 393 kts | 270° |
| 2026-05-08 16:34 | 49.59615 | 4.46342 | 24865 ft | 396 kts | 270° |
| 2026-05-08 16:34 | 49.59627 | 4.42103 | 24460 ft | 394 kts | 270° |
| 2026-05-08 16:34 | 49.59638 | 4.37894 | 24042 ft | 392 kts | 270° |
| 2026-05-08 16:34 | 49.59648 | 4.33705 | 23624 ft | 390 kts | 270° |
| 2026-05-08 16:35 | 49.59656 | 4.29533 | 23153 ft | 388 kts | 269° |
| 2026-05-08 16:35 | 49.59661 | 4.25386 | 22743 ft | 386 kts | 269° |
| 2026-05-08 16:35 | 49.59666 | 4.21271 | 22349 ft | 383 kts | 269° |
| 2026-05-08 16:35 | 49.59668 | 4.17166 | 21947 ft | 381 kts | 269° |
| 2026-05-08 16:36 | 49.59670 | 4.13102 | 21535 ft | 378 kts | 269° |
| 2026-05-08 16:36 | 49.59581 | 4.09064 | 21149 ft | 376 kts | 263° |
| 2026-05-08 16:36 | 49.58907 | 4.05206 | 20765 ft | 373 kts | 245° |
| 2026-05-08 16:36 | 49.57642 | 4.01737 | 20355 ft | 370 kts | 238° |
| 2026-05-08 16:37 | 49.56241 | 3.98421 | 19978 ft | 368 kts | 237° |
| 2026-05-08 16:37 | 49.54833 | 3.95134 | 19578 ft | 366 kts | 237° |
| 2026-05-08 16:37 | 49.53438 | 3.91866 | 19200 ft | 364 kts | 237° |
| 2026-05-08 16:37 | 49.52059 | 3.88622 | 18810 ft | 362 kts | 237° |
| 2026-05-08 16:38 | 49.50706 | 3.85435 | 18444 ft | 360 kts | 237° |
| 2026-05-08 16:38 | 49.49342 | 3.82217 | 18025 ft | 357 kts | 237° |
| 2026-05-08 16:38 | 49.48018 | 3.78995 | 17636 ft | 355 kts | 240° |
| 2026-05-08 16:38 | 49.47077 | 3.75497 | 17271 ft | 354 kts | 252° |
| 2026-05-08 16:39 | 49.46426 | 3.71863 | 16899 ft | 352 kts | 255° |
| 2026-05-08 16:39 | 49.45827 | 3.68228 | 16522 ft | 349 kts | 255° |
| 2026-05-08 16:39 | 49.45232 | 3.64617 | 16154 ft | 347 kts | 255° |
| 2026-05-08 16:39 | 49.44635 | 3.61036 | 15867 ft | 345 kts | 255° |
| 2026-05-08 16:40 | 49.44035 | 3.57464 | 15698 ft | 345 kts | 255° |
| 2026-05-08 16:40 | 49.43433 | 3.53904 | 15525 ft | 344 kts | 255° |
| 2026-05-08 16:40 | 49.42829 | 3.50349 | 15306 ft | 344 kts | 255° |
| 2026-05-08 16:40 | 49.42220 | 3.46808 | 15120 ft | 343 kts | 254° |
| 2026-05-08 16:41 | 49.41390 | 3.43386 | 14909 ft | 342 kts | 245° |
| 2026-05-08 16:41 | 49.40377 | 3.40097 | 14620 ft | 340 kts | 244° |
| 2026-05-08 16:41 | 49.39334 | 3.36842 | 14338 ft | 339 kts | 243° |
| 2026-05-08 16:42 | 49.37265 | 3.30381 | 13752 ft | 336 kts | 243° |
| 2026-05-08 16:42 | 49.36237 | 3.27164 | 13468 ft | 335 kts | 243° |
| 2026-05-08 16:42 | 49.35216 | 3.23966 | 13193 ft | 333 kts | 243° |
| 2026-05-08 16:42 | 49.34197 | 3.20778 | 12933 ft | 332 kts | 243° |
| 2026-05-08 16:43 | 49.33183 | 3.17606 | 12696 ft | 331 kts | 243° |
| 2026-05-08 16:43 | 49.32173 | 3.14452 | 12428 ft | 329 kts | 243° |
| 2026-05-08 16:43 | 49.31164 | 3.11303 | 12159 ft | 328 kts | 243° |
| 2026-05-08 16:43 | 49.30158 | 3.08168 | 11908 ft | 327 kts | 243° |
| 2026-05-08 16:44 | 49.29157 | 3.05050 | 11652 ft | 326 kts | 243° |
| 2026-05-08 16:44 | 49.28157 | 3.01943 | 11383 ft | 325 kts | 243° |
| 2026-05-08 16:44 | 49.27157 | 2.98837 | 11125 ft | 324 kts | 243° |
| 2026-05-08 16:44 | 49.26165 | 2.95760 | 10883 ft | 321 kts | 243° |
| 2026-05-08 16:45 | 49.25209 | 2.92799 | 10700 ft | 306 kts | 243° |
| 2026-05-08 16:45 | 49.24306 | 2.90001 | 10479 ft | 282 kts | 243° |
| 2026-05-08 16:45 | 49.23445 | 2.87340 | 10265 ft | 279 kts | 243° |
| 2026-05-08 16:45 | 49.22584 | 2.84680 | 10031 ft | 279 kts | 243° |
| 2026-05-08 16:46 | 49.21720 | 2.82017 | 9737 ft | 278 kts | 243° |
| 2026-05-08 16:46 | 49.20863 | 2.79377 | 9503 ft | 278 kts | 243° |
| 2026-05-08 16:46 | 49.20003 | 2.76730 | 9292 ft | 278 kts | 243° |
| 2026-05-08 16:46 | 49.19144 | 2.74090 | 9083 ft | 277 kts | 243° |
| 2026-05-08 16:47 | 49.18285 | 2.71452 | 8868 ft | 277 kts | 243° |
| 2026-05-08 16:47 | 49.17428 | 2.68822 | 8633 ft | 277 kts | 243° |
| 2026-05-08 16:47 | 49.16569 | 2.66190 | 8426 ft | 276 kts | 243° |
| 2026-05-08 16:47 | 49.15715 | 2.63574 | 8201 ft | 276 kts | 243° |
| 2026-05-08 16:48 | 49.14858 | 2.60956 | 7984 ft | 275 kts | 243° |
| 2026-05-08 16:48 | 49.14003 | 2.58342 | 7764 ft | 276 kts | 243° |
| 2026-05-08 16:48 | 49.13147 | 2.55727 | 7547 ft | 275 kts | 243° |
| 2026-05-08 16:48 | 49.12290 | 2.53115 | 7333 ft | 275 kts | 243° |
| 2026-05-08 16:49 | 49.11434 | 2.50505 | 7117 ft | 275 kts | 242° |
| 2026-05-08 16:49 | 49.10575 | 2.47893 | 6896 ft | 275 kts | 243° |
| 2026-05-08 16:49 | 49.09725 | 2.45312 | 6686 ft | 275 kts | 243° |
| 2026-05-08 16:49 | 49.08865 | 2.42699 | 6457 ft | 275 kts | 243° |
| 2026-05-08 16:50 | 49.08005 | 2.40091 | 6213 ft | 276 kts | 243° |
| 2026-05-08 16:50 | 49.07144 | 2.37482 | 5989 ft | 276 kts | 242° |
| 2026-05-08 16:50 | 49.06279 | 2.34866 | 5768 ft | 276 kts | 243° |
| 2026-05-08 16:50 | 49.05417 | 2.32260 | 5557 ft | 275 kts | 243° |
| 2026-05-08 16:51 | 49.04567 | 2.29692 | 5385 ft | 266 kts | 243° |
| 2026-05-08 16:51 | 49.03753 | 2.27234 | 5249 ft | 254 kts | 243° |
| 2026-05-08 16:51 | 49.02975 | 2.24884 | 5088 ft | 243 kts | 243° |
| 2026-05-08 16:51 | 49.02229 | 2.22638 | 4975 ft | 232 kts | 243° |
| 2026-05-08 16:52 | 49.01384 | 2.20611 | 4797 ft | 224 kts | 222° |
| 2026-05-08 16:52 | 49.00018 | 2.19699 | 4604 ft | 213 kts | 182° |
| 2026-05-08 16:52 | 48.98620 | 2.20036 | 4451 ft | 200 kts | 149° |
| 2026-05-08 16:52 | 48.97806 | 2.21571 | 4325 ft | 183 kts | 108° |
| 2026-05-08 16:53 | 48.97277 | 2.25133 | 4117 ft | 167 kts | 100° |
| 2026-05-08 16:53 | 48.97029 | 2.26834 | 3903 ft | 162 kts | 103° |
| 2026-05-08 16:53 | 48.96418 | 2.28199 | 3667 ft | 158 kts | 149° |
| 2026-05-08 16:54 | 48.95359 | 2.28215 | 3620 ft | 160 kts | 206° |
| 2026-05-08 16:54 | 48.94735 | 2.26869 | 3621 ft | 161 kts | 262° |
| 2026-05-08 16:54 | 48.95095 | 2.25335 | 3621 ft | 158 kts | 318° |
| 2026-05-08 16:54 | 48.96102 | 2.24931 | 3610 ft | 154 kts | 14° |
| 2026-05-08 16:55 | 48.97069 | 2.25552 | 3625 ft | 151 kts | 25° |
| 2026-05-08 16:55 | 48.98100 | 2.25859 | 3620 ft | 153 kts | 2° |
| 2026-05-08 16:55 | 48.99155 | 2.25534 | 3487 ft | 154 kts | 347° |
| 2026-05-08 16:55 | 49.00205 | 2.25551 | 3340 ft | 152 kts | 22° |
| 2026-05-08 16:56 | 49.00918 | 2.26675 | 3221 ft | 151 kts | 61° |
| 2026-05-08 16:56 | 49.01207 | 2.28187 | 3031 ft | 149 kts | 83° |
| 2026-05-08 16:56 | 49.01262 | 2.29759 | 2965 ft | 147 kts | 85° |
| 2026-05-08 16:56 | 49.01338 | 2.31314 | 2969 ft | 148 kts | 84° |
| 2026-05-08 16:57 | 49.01425 | 2.32882 | 2911 ft | 147 kts | 84° |
| 2026-05-08 16:57 | 49.01516 | 2.34388 | 2738 ft | 139 kts | 84° |
| 2026-05-08 16:57 | 49.01594 | 2.35804 | 2537 ft | 131 kts | 84° |
| 2026-05-08 16:57 | 49.01666 | 2.37194 | 2371 ft | 131 kts | 84° |
| 2026-05-08 16:58 | 49.01739 | 2.38577 | 2204 ft | 131 kts | 84° |
| 2026-05-08 16:58 | 49.01813 | 2.39964 | 2026 ft | 132 kts | 84° |
| 2026-05-08 16:58 | 49.01887 | 2.41349 | 1852 ft | 132 kts | 84° |
| 2026-05-08 16:58 | 49.01958 | 2.42748 | 1686 ft | 135 kts | 83° |
| 2026-05-08 16:59 | 49.02059 | 2.44148 | 1488 ft | 131 kts | 84° |
| 2026-05-08 16:59 | 49.02111 | 2.45518 | 1270 ft | 128 kts | 89° |
| 2026-05-08 16:59 | 49.02153 | 2.46853 | 1135 ft | 129 kts | 86° |
| 2026-05-08 16:59 | 49.02223 | 2.48244 | 951 ft | 132 kts | 84° |
| 2026-05-08 17:00 | 49.02314 | 2.49637 | 734 ft | 129 kts | 82° |
| 2026-05-08 17:00 | 49.02411 | 2.50968 | 594 ft | 129 kts | 81° |
| 2026-05-08 17:00 | 49.02484 | 2.52328 | 424 ft | 128 kts | 84° |
| 2026-05-08 17:00 | 49.02543 | 2.53640 | 368 ft | 116 kts | 83° |
| 2026-05-08 17:01 | 49.02593 | 2.54635 | 364 ft | 57 kts | 86° |
| 2026-05-08 17:01 | 49.02605 | 2.54885 | 364 ft | 18 kts | 86° |
| 2026-05-08 17:01 | 49.02601 | 2.55098 | 367 ft | 15 kts | 98° |
| 2026-05-08 17:01 | 49.02577 | 2.55249 | 368 ft | 16 kts | 107° |
| 2026-05-08 17:02 | 49.02532 | 2.55418 | 365 ft | 19 kts | 115° |
| 2026-05-08 17:02 | 49.02470 | 2.55593 | 369 ft | 19 kts | 122° |
| 2026-05-08 17:02 | 49.02412 | 2.55635 | 366 ft | 6 kts | 196° |
| 2026-05-08 17:02 | 49.02400 | 2.55630 | 365 ft | 1 kts | 193° |
| 2026-05-08 17:03 | 49.02375 | 2.55625 | 368 ft | 6 kts | 185° |
| 2026-05-08 17:03 | 49.02319 | 2.55626 | 366 ft | 10 kts | 176° |
| 2026-05-08 17:03 | 49.02231 | 2.55637 | 368 ft | 15 kts | 174° |
| 2026-05-08 17:03 | 49.02115 | 2.55653 | 366 ft | 17 kts | 175° |
| 2026-05-08 17:04 | 49.01989 | 2.55666 | 360 ft | 19 kts | 175° |
| 2026-05-08 17:04 | 49.01892 | 2.55603 | 366 ft | 11 kts | 255° |
| 2026-05-08 17:04 | 49.01879 | 2.55468 | 365 ft | 15 kts | 266° |
| 2026-05-08 17:04 | 49.01871 | 2.55291 | 364 ft | 19 kts | 266° |
| 2026-05-08 17:05 | 49.01860 | 2.55072 | 367 ft | 22 kts | 264° |
| 2026-05-08 17:05 | 49.01844 | 2.54920 | 366 ft | 23 kts | 246° |
| 2026-05-08 17:05 | 49.01716 | 2.54871 | 366 ft | 21 kts | 173° |
| 2026-05-08 17:05 | 49.01558 | 2.54891 | 362 ft | 24 kts | 176° |
| 2026-05-08 17:06 | 49.01386 | 2.54925 | 366 ft | 23 kts | 166° |
| 2026-05-08 17:06 | 49.01222 | 2.54993 | 367 ft | 26 kts | 163° |
| 2026-05-08 17:06 | 49.01075 | 2.55057 | 366 ft | 20 kts | 164° |
| 2026-05-08 17:06 | 49.00929 | 2.55121 | 369 ft | 23 kts | 164° |
| 2026-05-08 17:07 | 49.00784 | 2.55186 | 367 ft | 14 kts | 164° |
| 2026-05-08 17:07 | 49.00707 | 2.55268 | 363 ft | 13 kts | 101° |
| 2026-05-08 17:07 | 49.00724 | 2.55417 | 368 ft | 15 kts | 83° |
| 2026-05-08 17:07 | 49.00739 | 2.55595 | 368 ft | 18 kts | 83° |
| 2026-05-08 17:08 | 49.00754 | 2.55802 | 362 ft | 21 kts | 84° |
| 2026-05-08 17:08 | 49.00776 | 2.56030 | 368 ft | 23 kts | 82° |
| 2026-05-08 17:08 | 49.02540 | 2.53587 | 362 ft | 4 kts | 83° |
| 2026-05-08 17:08 | 49.02540 | 2.53589 | 362 ft | 4 kts | 83° |